createdAt,value
2022-09-04T00:00:00.170Z,91.8
2022-09-04T00:10:00.180Z,91.8
2022-09-04T00:15:00.161Z,91.8
2022-09-04T00:20:00.382Z,91.5
2022-09-04T00:25:00.168Z,91.4
2022-09-04T00:30:00.351Z,91.5
2022-09-04T00:35:00.161Z,91.8
2022-09-04T00:40:00.342Z,91.5
2022-09-04T00:45:00.242Z,91.5
2022-09-04T00:50:00.170Z,91.8
2022-09-04T00:55:00.158Z,92.1
2022-09-04T01:00:00.168Z,92.4
2022-09-04T01:05:00.158Z,92.4
2022-09-04T01:10:00.224Z,92.7
2022-09-04T01:15:00.159Z,92.1
2022-09-04T01:20:00.157Z,91.8
2022-09-04T01:25:00.167Z,92.4
2022-09-04T01:30:00.204Z,92.1
2022-09-04T01:35:00.167Z,92.1
2022-09-04T01:40:00.317Z,92.4
2022-09-04T01:45:00.223Z,92.7
2022-09-04T01:50:00.241Z,92.1
2022-09-04T01:55:00.297Z,92
2022-09-04T02:00:00.310Z,92
2022-09-04T02:05:03.957Z,92.6
2022-09-04T02:10:00.264Z,92.3
2022-09-04T02:15:00.199Z,92.6
2022-09-04T02:20:00.180Z,92.6
2022-09-04T02:25:00.190Z,92.3
2022-09-04T02:30:00.196Z,92.6
2022-09-04T02:35:00.194Z,93.2
2022-09-04T02:40:00.266Z,93.2
2022-09-04T02:45:00.194Z,93.2
2022-09-04T02:50:00.175Z,93.2
2022-09-04T02:55:00.179Z,93.2
2022-09-04T03:00:00.171Z,93.6
2022-09-04T03:05:00.170Z,93.9
2022-09-04T03:10:00.173Z,93.2
2022-09-04T03:15:00.191Z,92.6
2022-09-04T03:20:00.255Z,92.6
2022-09-04T03:25:00.159Z,92.6
2022-09-04T03:30:00.181Z,92
2022-09-04T03:35:00.218Z,92.2
2022-09-04T03:40:00.305Z,92.5
2022-09-04T03:45:00.213Z,92.5
2022-09-04T03:50:00.178Z,92.8
2022-09-04T03:55:00.166Z,93.1
2022-09-04T04:00:00.192Z,93.1
2022-09-04T04:05:00.273Z,93.1
2022-09-04T04:10:00.185Z,93.1
2022-09-04T04:15:00.165Z,93.1
2022-09-04T04:20:00.281Z,93.5
2022-09-04T04:25:00.285Z,93.5
2022-09-04T04:30:00.194Z,93.8
2022-09-04T04:35:00.175Z,93.8
2022-09-04T04:40:00.327Z,93.8
2022-09-04T04:45:00.164Z,93.8
2022-09-04T04:50:00.185Z,93.8
2022-09-04T04:55:00.164Z,93.7
2022-09-04T05:00:00.172Z,93.7
2022-09-04T05:05:00.185Z,93.8
2022-09-04T05:10:00.173Z,93.7
2022-09-04T05:15:00.165Z,93.8
2022-09-04T05:20:00.212Z,93.8
2022-09-04T05:25:00.172Z,94.1
2022-09-04T05:30:00.161Z,94.7
2022-09-04T05:35:00.172Z,94.8
2022-09-04T05:40:01.435Z,94.8
2022-09-04T05:45:00.205Z,94.8
2022-09-04T05:50:00.158Z,94.6
2022-09-04T05:55:00.189Z,94.6
2022-09-04T06:00:00.170Z,94
2022-09-04T06:05:00.165Z,92.1
2022-09-04T06:10:00.184Z,94.7
2022-09-04T06:15:00.195Z,93.2
2022-09-04T06:20:00.177Z,92.3
2022-09-04T06:25:00.164Z,93
2022-09-04T06:30:00.161Z,93
2022-09-04T07:00:00.192Z,91.9
2022-09-04T07:05:00.159Z,91
2022-09-04T07:20:00.183Z,90.8
2022-09-04T07:35:00.201Z,89
2022-09-04T07:40:00.493Z,87.8
2022-09-04T07:45:00.267Z,87.9
2022-09-04T07:50:00.289Z,86.6
2022-09-04T07:55:00.223Z,84.8
2022-09-04T08:00:00.230Z,84.8
2022-09-04T08:05:03.434Z,85.5
2022-09-04T08:10:00.158Z,83
2022-09-04T08:25:00.172Z,81.2
2022-09-04T08:30:01.412Z,80.3
2022-09-04T08:35:00.148Z,79.1
2022-09-04T08:40:00.309Z,77.5
2022-09-04T08:50:00.197Z,76.3
2022-09-04T08:55:00.190Z,76.3
2022-09-04T09:00:00.173Z,75.7
2022-09-04T09:05:00.202Z,73.2
2022-09-04T09:10:00.172Z,72.5
2022-09-04T09:15:00.169Z,73.2
2022-09-04T09:20:00.172Z,72.6
2022-09-04T09:25:00.169Z,70
2022-09-04T09:30:00.209Z,70.5
2022-09-04T09:35:00.164Z,67.6
2022-09-04T09:40:00.328Z,67.2
2022-09-04T09:45:00.176Z,65.8
2022-09-04T09:50:00.211Z,67.9
2022-09-04T09:55:00.179Z,65.6
2022-09-04T10:00:00.173Z,66.6
2022-09-04T10:05:00.223Z,65
2022-09-04T10:10:00.179Z,65.7
2022-09-04T10:15:00.172Z,65.2
2022-09-04T10:20:00.173Z,65.1
2022-09-04T10:25:00.172Z,63.1
2022-09-04T10:30:00.199Z,64.9
2022-09-04T10:35:00.161Z,63.8
2022-09-04T10:40:00.370Z,62.5
2022-09-04T10:45:00.203Z,62.2
2022-09-04T10:50:00.178Z,62.5
2022-09-04T10:55:00.180Z,59.3
2022-09-04T11:00:00.170Z,61.6
2022-09-04T11:05:00.169Z,60
2022-09-04T11:10:00.179Z,58.1
2022-09-04T11:15:00.175Z,54.8
2022-09-04T11:20:00.176Z,59.4
2022-09-04T11:25:00.189Z,57.5
2022-09-04T11:30:00.166Z,57.2
2022-09-04T11:35:00.178Z,54.9
2022-09-04T11:40:00.325Z,56.3
2022-09-04T11:45:00.160Z,55.9
2022-09-04T11:50:00.173Z,58.2
2022-09-04T11:55:00.164Z,57.6
2022-09-04T12:00:00.341Z,56
2022-09-04T12:05:00.186Z,56.4
2022-09-04T12:10:00.170Z,53.8
2022-09-04T12:15:07.661Z,54.4
2022-09-04T12:20:00.194Z,51.1
2022-09-04T12:25:00.165Z,52.4
2022-09-04T12:30:00.164Z,50.5
2022-09-04T12:35:00.162Z,55.5
2022-09-04T12:40:00.391Z,53
2022-09-04T12:45:00.173Z,54.3
2022-09-04T12:50:00.169Z,54.9
2022-09-04T12:55:00.171Z,52.7
2022-09-04T13:00:00.248Z,54
2022-09-04T13:05:00.175Z,54.3
2022-09-04T13:10:00.182Z,53.3
2022-09-04T13:15:00.166Z,54.9
2022-09-04T13:20:00.187Z,53
2022-09-04T13:25:00.182Z,51.1
2022-09-04T13:30:03.271Z,48.8
2022-09-04T13:35:00.186Z,51.8
2022-09-04T13:40:00.347Z,49.2
2022-09-04T13:45:00.180Z,48.8
2022-09-04T13:50:00.192Z,49.1
2022-09-04T13:55:00.170Z,49.1
2022-09-04T14:00:00.178Z,47.8
2022-09-04T14:05:00.188Z,49.5
2022-09-04T14:10:00.180Z,48.1
2022-09-04T14:15:00.204Z,51.1
2022-09-04T14:20:00.191Z,51
2022-09-04T14:25:00.189Z,50.3
2022-09-04T14:30:00.181Z,51
2022-09-04T14:35:00.170Z,52.6
2022-09-04T14:40:00.299Z,51
2022-09-04T14:45:00.211Z,49
2022-09-04T14:50:00.168Z,50.3
2022-09-04T14:55:00.184Z,50.3
2022-09-04T15:00:00.192Z,52.2
2022-09-04T15:05:00.215Z,53.5
2022-09-04T15:10:00.174Z,50.3
2022-09-04T15:15:00.185Z,51
2022-09-04T15:20:00.210Z,51
2022-09-04T15:25:00.173Z,52.2
2022-09-04T15:30:00.180Z,56.4
2022-09-04T15:35:00.175Z,58
2022-09-04T15:40:00.358Z,58
2022-09-04T15:45:00.195Z,59
2022-09-04T15:50:00.330Z,58.6
2022-09-04T15:55:00.161Z,56.7
2022-09-04T16:00:00.284Z,59
2022-09-04T16:05:00.171Z,58.6
2022-09-04T16:10:00.305Z,59.6
2022-09-04T16:15:00.174Z,60.5
2022-09-04T16:20:00.283Z,60.6
2022-09-04T16:25:00.167Z,59.6
2022-09-04T16:30:00.200Z,59.9
2022-09-04T16:35:00.182Z,60.8
2022-09-04T16:40:00.569Z,61.8
2022-09-04T16:45:00.193Z,61.8
2022-09-04T16:50:00.194Z,63
2022-09-04T16:55:00.182Z,63.3
2022-09-04T17:00:00.183Z,63.9
2022-09-04T17:05:00.201Z,64.2
2022-09-04T17:10:00.168Z,65.5
2022-09-04T17:15:00.162Z,67.4
2022-09-04T17:20:00.177Z,68.7
2022-09-04T17:29:13.399Z,69.9
2022-09-04T17:30:00.175Z,70.8
2022-09-04T17:40:36.662Z,71.4
2022-09-04T17:40:54.952Z,72
2022-09-04T17:45:00.208Z,73.3
2022-09-04T17:50:00.207Z,73.6
2022-09-04T17:55:00.168Z,74.8
2022-09-04T18:00:00.175Z,75.4
2022-09-04T18:05:00.179Z,76.6
2022-09-04T18:10:00.233Z,77.2
2022-09-04T18:15:32.848Z,77.2
2022-09-04T18:20:00.321Z,77.8
2022-09-04T18:25:00.237Z,78.4
2022-09-04T18:33:10.495Z,79.4
2022-09-04T18:37:25.490Z,79.6
2022-09-04T18:40:00.290Z,80.3
2022-09-04T18:50:34.792Z,80.6
2022-09-04T18:50:50.391Z,80.9
2022-09-04T18:55:00.176Z,81.2
2022-09-04T19:00:07.980Z,81.4
2022-09-04T19:05:00.173Z,82.1
2022-09-04T19:10:00.170Z,83
2022-09-04T19:15:00.171Z,82.4
2022-09-04T19:20:00.185Z,82.7
2022-09-04T19:25:00.173Z,82.7
2022-09-04T19:30:10.547Z,82.3
2022-09-04T19:35:00.173Z,82.3
2022-09-04T19:46:06.569Z,82.7
2022-09-04T19:46:11.850Z,83.3
2022-09-04T19:53:00.310Z,82.3
2022-09-04T19:55:24.015Z,83
2022-09-04T20:00:00.829Z,82.3
2022-09-04T20:05:00.174Z,82
2022-09-04T20:10:00.172Z,82.6
2022-09-04T20:15:00.185Z,82.6
2022-09-04T20:20:00.184Z,83.2
2022-09-04T20:25:02.352Z,83.2
2022-09-04T20:30:00.167Z,83.8
2022-09-04T20:35:00.175Z,83.8
2022-09-04T20:40:00.321Z,84.1
2022-09-04T20:46:26.490Z,84.4
2022-09-04T20:53:00.397Z,84.4
2022-09-04T20:55:00.162Z,84.4
2022-09-04T21:03:08.525Z,84.4
2022-09-04T21:05:00.280Z,84.7
2022-09-04T21:10:00.193Z,85
2022-09-04T21:15:00.189Z,85.3
2022-09-04T21:20:00.169Z,85.6
2022-09-04T21:25:00.174Z,85.9
2022-09-04T21:30:00.208Z,86.5
2022-09-04T21:35:00.176Z,86.5
2022-09-04T21:40:00.269Z,86.8
2022-09-04T21:45:00.186Z,86.8
2022-09-04T21:50:00.181Z,87.1
2022-09-04T21:57:28.755Z,86.7
2022-09-04T22:02:38.662Z,87.4
2022-09-04T22:05:00.447Z,87.7
2022-09-04T22:13:32.036Z,88
2022-09-04T22:15:00.167Z,88
2022-09-04T22:20:00.193Z,88
2022-09-04T22:25:00.173Z,87.4
2022-09-04T22:30:00.162Z,88
2022-09-04T22:35:00.166Z,87.4
2022-09-04T22:40:00.340Z,87.7
2022-09-04T22:45:09.914Z,87.7
2022-09-04T22:50:00.164Z,86.7
2022-09-04T22:55:00.166Z,86.1
2022-09-04T23:00:00.167Z,86.8
2022-09-04T23:05:00.248Z,86.8
2022-09-04T23:14:00.285Z,86.7
2022-09-04T23:15:07.928Z,86.8
2022-09-04T23:26:35.879Z,86.4
2022-09-04T23:26:48.001Z,86.1
2022-09-04T23:30:00.166Z,86.4
2022-09-04T23:35:14.998Z,86.7
2022-09-04T23:40:00.390Z,86.5
2022-09-04T23:45:00.225Z,86.4
2022-09-04T23:50:00.194Z,86.4
2022-09-04T23:55:00.185Z,87
